sensor_id;sensor_type;location;lat;lon;timestamp;P1;durP1;ratioP1;P2;durP2;ratioP2
5133;SDS011;2585;48.696;10.066;2023-05-07T00:01:44;2.80;;;1.70;;
5133;SDS011;2585;48.696;10.066;2023-05-07T00:04:11;5.37;;;2.00;;
5133;SDS011;2585;48.696;10.066;2023-05-07T00:06:41;6.93;;;2.07;;
5133;SDS011;2585;48.696;10.066;2023-05-07T00:09:07;2.10;;;1.90;;
5133;SDS011;2585;48.696;10.066;2023-05-07T00:11:34;2.50;;;1.87;;
5133;SDS011;2585;48.696;10.066;2023-05-07T00:14:02;1.70;;;1.60;;
5133;SDS011;2585;48.696;10.066;2023-05-07T00:16:29;2.13;;;1.73;;
5133;SDS011;2585;48.696;10.066;2023-05-07T00:18:56;2.40;;;1.97;;
5133;SDS011;2585;48.696;10.066;2023-05-07T00:21:23;1.77;;;1.67;;
5133;SDS011;2585;48.696;10.066;2023-05-07T00:23:53;1.70;;;1.60;;
5133;SDS011;2585;48.696;10.066;2023-05-07T00:26:20;2.53;;;1.60;;
5133;SDS011;2585;48.696;10.066;2023-05-07T00:28:47;2.37;;;1.60;;
5133;SDS011;2585;48.696;10.066;2023-05-07T00:31:14;1.77;;;1.40;;
5133;SDS011;2585;48.696;10.066;2023-05-07T00:33:41;2.13;;;1.93;;
5133;SDS011;2585;48.696;10.066;2023-05-07T00:36:08;2.80;;;1.73;;
5133;SDS011;2585;48.696;10.066;2023-05-07T00:38:35;2.37;;;1.70;;
5133;SDS011;2585;48.696;10.066;2023-05-07T00:41:01;2.20;;;1.80;;
5133;SDS011;2585;48.696;10.066;2023-05-07T00:43:28;1.90;;;1.60;;
5133;SDS011;2585;48.696;10.066;2023-05-07T00:45:55;2.50;;;1.77;;
5133;SDS011;2585;48.696;10.066;2023-05-07T00:48:22;2.80;;;1.70;;
5133;SDS011;2585;48.696;10.066;2023-05-07T00:50:50;2.40;;;1.50;;
5133;SDS011;2585;48.696;10.066;2023-05-07T00:53:17;1.90;;;1.73;;
5133;SDS011;2585;48.696;10.066;2023-05-07T00:55:44;4.10;;;2.10;;
5133;SDS011;2585;48.696;10.066;2023-05-07T00:58:11;1.67;;;1.57;;
5133;SDS011;2585;48.696;10.066;2023-05-07T01:00:38;2.43;;;1.80;;
5133;SDS011;2585;48.696;10.066;2023-05-07T01:03:04;2.93;;;2.20;;
5133;SDS011;2585;48.696;10.066;2023-05-07T01:05:32;4.20;;;1.70;;
5133;SDS011;2585;48.696;10.066;2023-05-07T01:08:01;2.23;;;2.03;;
5133;SDS011;2585;48.696;10.066;2023-05-07T01:10:30;2.17;;;1.90;;
5133;SDS011;2585;48.696;10.066;2023-05-07T01:12:57;5.93;;;1.90;;
5133;SDS011;2585;48.696;10.066;2023-05-07T01:15:26;2.93;;;1.57;;
5133;SDS011;2585;48.696;10.066;2023-05-07T01:17:53;3.97;;;1.90;;
5133;SDS011;2585;48.696;10.066;2023-05-07T01:20:22;2.73;;;2.20;;
5133;SDS011;2585;48.696;10.066;2023-05-07T01:22:49;1.83;;;1.73;;
5133;SDS011;2585;48.696;10.066;2023-05-07T01:25:17;6.20;;;2.20;;
5133;SDS011;2585;48.696;10.066;2023-05-07T01:27:44;4.03;;;1.73;;
5133;SDS011;2585;48.696;10.066;2023-05-07T01:30:12;2.83;;;2.07;;
5133;SDS011;2585;48.696;10.066;2023-05-07T01:35:12;2.27;;;1.67;;
5133;SDS011;2585;48.696;10.066;2023-05-07T01:37:44;2.47;;;2.27;;
5133;SDS011;2585;48.696;10.066;2023-05-07T01:40:12;12.10;;;2.33;;
5133;SDS011;2585;48.696;10.066;2023-05-07T01:42:40;2.50;;;2.30;;
5133;SDS011;2585;48.696;10.066;2023-05-07T01:45:09;3.57;;;2.37;;
5133;SDS011;2585;48.696;10.066;2023-05-07T01:47:36;2.27;;;2.07;;
5133;SDS011;2585;48.696;10.066;2023-05-07T01:50:05;2.53;;;2.20;;
5133;SDS011;2585;48.696;10.066;2023-05-07T01:52:36;4.80;;;2.40;;
5133;SDS011;2585;48.696;10.066;2023-05-07T01:55:06;4.50;;;2.20;;
5133;SDS011;2585;48.696;10.066;2023-05-07T01:57:33;2.30;;;2.10;;
5133;SDS011;2585;48.696;10.066;2023-05-07T02:00:00;4.50;;;2.47;;
5133;SDS011;2585;48.696;10.066;2023-05-07T02:02:27;3.07;;;2.10;;
5133;SDS011;2585;48.696;10.066;2023-05-07T02:04:54;2.43;;;2.23;;
5133;SDS011;2585;48.696;10.066;2023-05-07T02:07:21;3.47;;;2.43;;
5133;SDS011;2585;48.696;10.066;2023-05-07T02:09:48;3.30;;;2.53;;
5133;SDS011;2585;48.696;10.066;2023-05-07T02:12:14;9.37;;;2.90;;
5133;SDS011;2585;48.696;10.066;2023-05-07T02:14:41;3.73;;;2.63;;
5133;SDS011;2585;48.696;10.066;2023-05-07T02:17:08;3.70;;;2.30;;
5133;SDS011;2585;48.696;10.066;2023-05-07T02:19:35;3.70;;;2.20;;
5133;SDS011;2585;48.696;10.066;2023-05-07T02:22:01;4.50;;;2.07;;
5133;SDS011;2585;48.696;10.066;2023-05-07T02:24:28;2.43;;;2.23;;
5133;SDS011;2585;48.696;10.066;2023-05-07T02:26:56;3.40;;;3.00;;
5133;SDS011;2585;48.696;10.066;2023-05-07T02:29:22;7.83;;;2.60;;
5133;SDS011;2585;48.696;10.066;2023-05-07T02:31:49;2.33;;;1.90;;
5133;SDS011;2585;48.696;10.066;2023-05-07T02:34:19;6.13;;;2.90;;
5133;SDS011;2585;48.696;10.066;2023-05-07T02:36:46;4.30;;;2.87;;
5133;SDS011;2585;48.696;10.066;2023-05-07T02:39:13;4.70;;;2.87;;
5133;SDS011;2585;48.696;10.066;2023-05-07T02:41:41;2.63;;;2.30;;
5133;SDS011;2585;48.696;10.066;2023-05-07T02:44:08;7.87;;;2.50;;
5133;SDS011;2585;48.696;10.066;2023-05-07T02:46:35;2.50;;;2.30;;
5133;SDS011;2585;48.696;10.066;2023-05-07T02:49:02;2.93;;;2.23;;
5133;SDS011;2585;48.696;10.066;2023-05-07T02:51:29;4.70;;;2.43;;
5133;SDS011;2585;48.696;10.066;2023-05-07T02:53:57;6.67;;;2.10;;
5133;SDS011;2585;48.696;10.066;2023-05-07T02:56:25;14.10;;;2.77;;
5133;SDS011;2585;48.696;10.066;2023-05-07T02:58:52;4.10;;;2.97;;
5133;SDS011;2585;48.696;10.066;2023-05-07T03:01:19;5.63;;;1.87;;
5133;SDS011;2585;48.696;10.066;2023-05-07T03:03:47;1.87;;;1.77;;
5133;SDS011;2585;48.696;10.066;2023-05-07T03:06:14;4.13;;;2.33;;
5133;SDS011;2585;48.696;10.066;2023-05-07T03:08:41;2.60;;;2.20;;
5133;SDS011;2585;48.696;10.066;2023-05-07T03:11:08;4.13;;;2.03;;
5133;SDS011;2585;48.696;10.066;2023-05-07T03:13:35;3.67;;;2.60;;
5133;SDS011;2585;48.696;10.066;2023-05-07T03:16:01;2.90;;;1.80;;
5133;SDS011;2585;48.696;10.066;2023-05-07T03:18:28;2.67;;;2.00;;
5133;SDS011;2585;48.696;10.066;2023-05-07T03:20:55;2.30;;;2.03;;
5133;SDS011;2585;48.696;10.066;2023-05-07T03:23:22;2.30;;;1.67;;
5133;SDS011;2585;48.696;10.066;2023-05-07T03:25:50;2.83;;;2.20;;
5133;SDS011;2585;48.696;10.066;2023-05-07T03:28:17;4.67;;;2.50;;
5133;SDS011;2585;48.696;10.066;2023-05-07T03:30:44;5.87;;;2.30;;
5133;SDS011;2585;48.696;10.066;2023-05-07T03:33:10;3.00;;;2.40;;
5133;SDS011;2585;48.696;10.066;2023-05-07T03:35:37;2.77;;;2.40;;
5133;SDS011;2585;48.696;10.066;2023-05-07T03:38:04;5.90;;;1.93;;
5133;SDS011;2585;48.696;10.066;2023-05-07T03:40:31;3.30;;;2.30;;
5133;SDS011;2585;48.696;10.066;2023-05-07T03:42:59;4.83;;;2.17;;
5133;SDS011;2585;48.696;10.066;2023-05-07T03:45:26;2.63;;;2.37;;
5133;SDS011;2585;48.696;10.066;2023-05-07T03:47:53;5.10;;;1.90;;
5133;SDS011;2585;48.696;10.066;2023-05-07T03:50:19;2.90;;;1.87;;
5133;SDS011;2585;48.696;10.066;2023-05-07T03:52:46;2.50;;;2.00;;
5133;SDS011;2585;48.696;10.066;2023-05-07T03:55:13;6.57;;;2.50;;
5133;SDS011;2585;48.696;10.066;2023-05-07T03:57:40;2.60;;;2.30;;
5133;SDS011;2585;48.696;10.066;2023-05-07T04:00:07;2.90;;;2.10;;
5133;SDS011;2585;48.696;10.066;2023-05-07T04:02:35;5.27;;;2.20;;
5133;SDS011;2585;48.696;10.066;2023-05-07T04:05:02;3.20;;;2.40;;
5133;SDS011;2585;48.696;10.066;2023-05-07T04:07:28;6.03;;;2.53;;
5133;SDS011;2585;48.696;10.066;2023-05-07T04:09:55;2.70;;;2.40;;
5133;SDS011;2585;48.696;10.066;2023-05-07T04:12:22;4.63;;;2.53;;
5133;SDS011;2585;48.696;10.066;2023-05-07T04:14:49;3.20;;;2.27;;
5133;SDS011;2585;48.696;10.066;2023-05-07T04:17:16;5.33;;;1.83;;
5133;SDS011;2585;48.696;10.066;2023-05-07T04:19:43;2.00;;;1.90;;
5133;SDS011;2585;48.696;10.066;2023-05-07T04:22:11;2.60;;;2.10;;
5133;SDS011;2585;48.696;10.066;2023-05-07T04:24:38;3.50;;;2.50;;
5133;SDS011;2585;48.696;10.066;2023-05-07T04:27:05;3.10;;;1.90;;
5133;SDS011;2585;48.696;10.066;2023-05-07T04:29:32;5.00;;;2.47;;
5133;SDS011;2585;48.696;10.066;2023-05-07T04:31:59;2.60;;;2.40;;
5133;SDS011;2585;48.696;10.066;2023-05-07T04:34:26;3.30;;;2.50;;
5133;SDS011;2585;48.696;10.066;2023-05-07T04:36:53;3.47;;;2.57;;
5133;SDS011;2585;48.696;10.066;2023-05-07T04:39:20;2.97;;;2.43;;
5133;SDS011;2585;48.696;10.066;2023-05-07T04:41:46;2.80;;;2.60;;
5133;SDS011;2585;48.696;10.066;2023-05-07T04:44:13;2.63;;;2.33;;
5133;SDS011;2585;48.696;10.066;2023-05-07T04:46:40;2.77;;;2.47;;
5133;SDS011;2585;48.696;10.066;2023-05-07T04:49:07;3.30;;;2.63;;
5133;SDS011;2585;48.696;10.066;2023-05-07T04:51:34;2.53;;;2.30;;
5133;SDS011;2585;48.696;10.066;2023-05-07T04:54:01;3.10;;;2.37;;
5133;SDS011;2585;48.696;10.066;2023-05-07T04:56:28;3.30;;;2.27;;
5133;SDS011;2585;48.696;10.066;2023-05-07T04:58:56;2.70;;;2.40;;
5133;SDS011;2585;48.696;10.066;2023-05-07T05:01:22;2.10;;;1.90;;
5133;SDS011;2585;48.696;10.066;2023-05-07T05:03:49;4.80;;;2.30;;
5133;SDS011;2585;48.696;10.066;2023-05-07T05:06:16;2.83;;;2.37;;
5133;SDS011;2585;48.696;10.066;2023-05-07T05:08:43;2.53;;;2.33;;
5133;SDS011;2585;48.696;10.066;2023-05-07T05:11:10;3.07;;;2.60;;
5133;SDS011;2585;48.696;10.066;2023-05-07T05:13:37;4.73;;;2.50;;
5133;SDS011;2585;48.696;10.066;2023-05-07T05:16:04;4.00;;;2.30;;
5133;SDS011;2585;48.696;10.066;2023-05-07T05:18:32;2.30;;;2.10;;
5133;SDS011;2585;48.696;10.066;2023-05-07T05:20:59;3.13;;;2.70;;
5133;SDS011;2585;48.696;10.066;2023-05-07T05:23:26;5.13;;;3.63;;
5133;SDS011;2585;48.696;10.066;2023-05-07T05:25:57;4.00;;;3.00;;
5133;SDS011;2585;48.696;10.066;2023-05-07T05:28:24;4.20;;;2.63;;
5133;SDS011;2585;48.696;10.066;2023-05-07T05:30:51;4.40;;;2.63;;
5133;SDS011;2585;48.696;10.066;2023-05-07T05:33:17;2.33;;;2.13;;
5133;SDS011;2585;48.696;10.066;2023-05-07T05:35:44;5.83;;;2.97;;
5133;SDS011;2585;48.696;10.066;2023-05-07T05:38:11;3.07;;;2.60;;
5133;SDS011;2585;48.696;10.066;2023-05-07T05:40:38;4.40;;;4.00;;
5133;SDS011;2585;48.696;10.066;2023-05-07T05:43:05;3.70;;;3.17;;
5133;SDS011;2585;48.696;10.066;2023-05-07T05:45:32;3.60;;;3.10;;
5133;SDS011;2585;48.696;10.066;2023-05-07T05:47:59;3.13;;;2.83;;
5133;SDS011;2585;48.696;10.066;2023-05-07T05:50:26;2.23;;;2.03;;
5133;SDS011;2585;48.696;10.066;2023-05-07T05:52:53;4.33;;;2.90;;
5133;SDS011;2585;48.696;10.066;2023-05-07T05:55:20;6.27;;;2.83;;
5133;SDS011;2585;48.696;10.066;2023-05-07T05:57:47;2.80;;;2.60;;
5133;SDS011;2585;48.696;10.066;2023-05-07T06:00:14;3.17;;;2.80;;
5133;SDS011;2585;48.696;10.066;2023-05-07T06:02:42;3.10;;;2.23;;
5133;SDS011;2585;48.696;10.066;2023-05-07T06:05:12;4.43;;;2.50;;
5133;SDS011;2585;48.696;10.066;2023-05-07T06:07:39;4.47;;;2.60;;
5133;SDS011;2585;48.696;10.066;2023-05-07T06:10:06;4.67;;;2.90;;
5133;SDS011;2585;48.696;10.066;2023-05-07T06:12:33;5.83;;;2.70;;
5133;SDS011;2585;48.696;10.066;2023-05-07T06:15:00;4.67;;;3.03;;
5133;SDS011;2585;48.696;10.066;2023-05-07T06:17:27;3.50;;;2.30;;
5133;SDS011;2585;48.696;10.066;2023-05-07T06:19:54;4.50;;;2.50;;
5133;SDS011;2585;48.696;10.066;2023-05-07T06:22:21;4.20;;;2.50;;
5133;SDS011;2585;48.696;10.066;2023-05-07T06:24:48;2.30;;;2.10;;
5133;SDS011;2585;48.696;10.066;2023-05-07T06:27:14;5.33;;;2.20;;
5133;SDS011;2585;48.696;10.066;2023-05-07T06:29:41;3.20;;;2.40;;
5133;SDS011;2585;48.696;10.066;2023-05-07T06:32:09;4.30;;;2.07;;
5133;SDS011;2585;48.696;10.066;2023-05-07T06:34:37;5.53;;;2.30;;
5133;SDS011;2585;48.696;10.066;2023-05-07T06:37:04;5.17;;;3.00;;
5133;SDS011;2585;48.696;10.066;2023-05-07T06:39:31;2.67;;;2.47;;
5133;SDS011;2585;48.696;10.066;2023-05-07T06:41:59;3.33;;;2.87;;
5133;SDS011;2585;48.696;10.066;2023-05-07T06:44:27;4.87;;;2.67;;
5133;SDS011;2585;48.696;10.066;2023-05-07T06:46:54;2.53;;;2.33;;
5133;SDS011;2585;48.696;10.066;2023-05-07T06:49:21;3.63;;;2.80;;
5133;SDS011;2585;48.696;10.066;2023-05-07T06:51:48;2.70;;;2.50;;
5133;SDS011;2585;48.696;10.066;2023-05-07T06:54:14;3.80;;;3.00;;
5133;SDS011;2585;48.696;10.066;2023-05-07T06:56:42;2.90;;;2.57;;
5133;SDS011;2585;48.696;10.066;2023-05-07T06:59:09;2.83;;;2.50;;
5133;SDS011;2585;48.696;10.066;2023-05-07T07:01:36;3.63;;;3.00;;
5133;SDS011;2585;48.696;10.066;2023-05-07T07:04:03;2.43;;;2.23;;
5133;SDS011;2585;48.696;10.066;2023-05-07T07:06:30;3.73;;;3.00;;
5133;SDS011;2585;48.696;10.066;2023-05-07T07:08:58;3.20;;;2.90;;
5133;SDS011;2585;48.696;10.066;2023-05-07T07:11:25;2.90;;;2.47;;
5133;SDS011;2585;48.696;10.066;2023-05-07T07:13:52;2.90;;;2.40;;
5133;SDS011;2585;48.696;10.066;2023-05-07T07:16:21;3.40;;;3.10;;
5133;SDS011;2585;48.696;10.066;2023-05-07T07:18:48;4.40;;;3.10;;
5133;SDS011;2585;48.696;10.066;2023-05-07T07:21:15;3.33;;;2.50;;
5133;SDS011;2585;48.696;10.066;2023-05-07T07:23:41;3.07;;;2.77;;
5133;SDS011;2585;48.696;10.066;2023-05-07T07:26:08;2.70;;;2.30;;
5133;SDS011;2585;48.696;10.066;2023-05-07T07:28:41;4.20;;;2.90;;
5133;SDS011;2585;48.696;10.066;2023-05-07T07:31:10;5.63;;;2.50;;
5133;SDS011;2585;48.696;10.066;2023-05-07T07:33:38;3.13;;;2.53;;
5133;SDS011;2585;48.696;10.066;2023-05-07T07:36:05;4.17;;;2.87;;
5133;SDS011;2585;48.696;10.066;2023-05-07T07:38:33;6.83;;;3.00;;
5133;SDS011;2585;48.696;10.066;2023-05-07T07:41:00;5.00;;;3.10;;
5133;SDS011;2585;48.696;10.066;2023-05-07T07:43:27;4.90;;;2.90;;
5133;SDS011;2585;48.696;10.066;2023-05-07T07:45:54;5.57;;;2.70;;
5133;SDS011;2585;48.696;10.066;2023-05-07T07:48:21;3.57;;;2.90;;
5133;SDS011;2585;48.696;10.066;2023-05-07T07:50:49;4.97;;;3.27;;
5133;SDS011;2585;48.696;10.066;2023-05-07T07:53:17;3.40;;;2.40;;
5133;SDS011;2585;48.696;10.066;2023-05-07T07:55:44;3.43;;;2.80;;
5133;SDS011;2585;48.696;10.066;2023-05-07T07:58:11;2.43;;;2.17;;
5133;SDS011;2585;48.696;10.066;2023-05-07T08:00:38;3.10;;;1.90;;
5133;SDS011;2585;48.696;10.066;2023-05-07T08:03:05;4.57;;;2.10;;
5133;SDS011;2585;48.696;10.066;2023-05-07T08:05:33;2.30;;;1.83;;
5133;SDS011;2585;48.696;10.066;2023-05-07T08:08:00;2.80;;;1.80;;
5133;SDS011;2585;48.696;10.066;2023-05-07T08:10:27;2.20;;;1.70;;
5133;SDS011;2585;48.696;10.066;2023-05-07T08:12:54;3.70;;;2.13;;
5133;SDS011;2585;48.696;10.066;2023-05-07T08:15:21;5.67;;;1.67;;
5133;SDS011;2585;48.696;10.066;2023-05-07T08:17:47;2.40;;;1.60;;
5133;SDS011;2585;48.696;10.066;2023-05-07T08:20:14;3.90;;;1.83;;
5133;SDS011;2585;48.696;10.066;2023-05-07T08:22:41;2.60;;;2.17;;
5133;SDS011;2585;48.696;10.066;2023-05-07T08:25:08;1.70;;;1.60;;
5133;SDS011;2585;48.696;10.066;2023-05-07T08:27:35;3.10;;;2.33;;
5133;SDS011;2585;48.696;10.066;2023-05-07T08:30:02;3.83;;;1.80;;
5133;SDS011;2585;48.696;10.066;2023-05-07T08:32:30;6.00;;;1.93;;
5133;SDS011;2585;48.696;10.066;2023-05-07T08:34:57;2.00;;;1.80;;
5133;SDS011;2585;48.696;10.066;2023-05-07T08:37:24;5.10;;;1.83;;
5133;SDS011;2585;48.696;10.066;2023-05-07T08:39:50;2.10;;;1.57;;
5133;SDS011;2585;48.696;10.066;2023-05-07T08:42:17;3.20;;;1.80;;
5133;SDS011;2585;48.696;10.066;2023-05-07T08:44:46;2.73;;;1.90;;
5133;SDS011;2585;48.696;10.066;2023-05-07T08:47:19;2.17;;;1.87;;
5133;SDS011;2585;48.696;10.066;2023-05-07T08:49:48;2.50;;;1.83;;
5133;SDS011;2585;48.696;10.066;2023-05-07T08:52:15;4.10;;;2.20;;
5133;SDS011;2585;48.696;10.066;2023-05-07T08:54:42;4.33;;;2.20;;
5133;SDS011;2585;48.696;10.066;2023-05-07T08:57:10;4.27;;;1.77;;
5133;SDS011;2585;48.696;10.066;2023-05-07T08:59:36;4.17;;;2.40;;
5133;SDS011;2585;48.696;10.066;2023-05-07T09:02:05;1.93;;;1.77;;
5133;SDS011;2585;48.696;10.066;2023-05-07T09:04:35;2.67;;;2.20;;
5133;SDS011;2585;48.696;10.066;2023-05-07T09:07:02;1.97;;;1.60;;
5133;SDS011;2585;48.696;10.066;2023-05-07T09:09:34;6.60;;;2.60;;
5133;SDS011;2585;48.696;10.066;2023-05-07T09:12:01;6.10;;;2.73;;
5133;SDS011;2585;48.696;10.066;2023-05-07T09:14:29;5.07;;;2.30;;
5133;SDS011;2585;48.696;10.066;2023-05-07T09:16:56;2.90;;;2.07;;
5133;SDS011;2585;48.696;10.066;2023-05-07T09:19:24;3.00;;;2.13;;
5133;SDS011;2585;48.696;10.066;2023-05-07T09:21:58;7.93;;;2.60;;
5133;SDS011;2585;48.696;10.066;2023-05-07T09:24:26;4.10;;;2.40;;
5133;SDS011;2585;48.696;10.066;2023-05-07T09:26:54;3.40;;;2.20;;
5133;SDS011;2585;48.696;10.066;2023-05-07T09:29:24;2.53;;;1.80;;
5133;SDS011;2585;48.696;10.066;2023-05-07T09:31:51;2.97;;;2.53;;
5133;SDS011;2585;48.696;10.066;2023-05-07T09:34:18;3.93;;;1.80;;
5133;SDS011;2585;48.696;10.066;2023-05-07T09:36:44;4.13;;;1.80;;
5133;SDS011;2585;48.696;10.066;2023-05-07T09:39:11;1.57;;;1.40;;
5133;SDS011;2585;48.696;10.066;2023-05-07T09:41:48;3.50;;;2.27;;
5133;SDS011;2585;48.696;10.066;2023-05-07T09:44:15;2.40;;;1.83;;
5133;SDS011;2585;48.696;10.066;2023-05-07T09:46:43;2.30;;;2.10;;
5133;SDS011;2585;48.696;10.066;2023-05-07T09:49:20;3.20;;;1.80;;
5133;SDS011;2585;48.696;10.066;2023-05-07T09:51:49;4.63;;;2.17;;
5133;SDS011;2585;48.696;10.066;2023-05-07T09:54:17;4.20;;;1.70;;
5133;SDS011;2585;48.696;10.066;2023-05-07T09:56:44;1.90;;;1.70;;
5133;SDS011;2585;48.696;10.066;2023-05-07T09:59:15;4.60;;;1.73;;
5133;SDS011;2585;48.696;10.066;2023-05-07T10:01:43;2.23;;;2.00;;
5133;SDS011;2585;48.696;10.066;2023-05-07T10:04:10;2.47;;;1.60;;
5133;SDS011;2585;48.696;10.066;2023-05-07T10:06:38;1.80;;;1.70;;
5133;SDS011;2585;48.696;10.066;2023-05-07T10:09:05;1.50;;;1.40;;
5133;SDS011;2585;48.696;10.066;2023-05-07T10:11:33;3.30;;;1.90;;
5133;SDS011;2585;48.696;10.066;2023-05-07T10:14:01;2.23;;;1.60;;
5133;SDS011;2585;48.696;10.066;2023-05-07T10:16:34;3.67;;;1.90;;
5133;SDS011;2585;48.696;10.066;2023-05-07T10:19:03;3.67;;;2.00;;
5133;SDS011;2585;48.696;10.066;2023-05-07T10:21:31;3.37;;;2.00;;
5133;SDS011;2585;48.696;10.066;2023-05-07T10:24:25;3.97;;;2.07;;
5133;SDS011;2585;48.696;10.066;2023-05-07T10:26:55;2.23;;;1.90;;
5133;SDS011;2585;48.696;10.066;2023-05-07T10:34:56;3.50;;;1.70;;
5133;SDS011;2585;48.696;10.066;2023-05-07T10:37:26;2.80;;;1.83;;
5133;SDS011;2585;48.696;10.066;2023-05-07T10:39:54;2.60;;;1.87;;
5133;SDS011;2585;48.696;10.066;2023-05-07T10:42:21;2.67;;;1.70;;
5133;SDS011;2585;48.696;10.066;2023-05-07T10:44:48;2.90;;;2.03;;
5133;SDS011;2585;48.696;10.066;2023-05-07T10:47:16;3.20;;;2.13;;
5133;SDS011;2585;48.696;10.066;2023-05-07T10:52:15;6.23;;;1.67;;
5133;SDS011;2585;48.696;10.066;2023-05-07T10:54:44;2.00;;;1.57;;
5133;SDS011;2585;48.696;10.066;2023-05-07T11:00:40;3.40;;;2.03;;
5133;SDS011;2585;48.696;10.066;2023-05-07T11:03:04;3.73;;;2.30;;
5133;SDS011;2585;48.696;10.066;2023-05-07T11:05:33;2.50;;;2.23;;
5133;SDS011;2585;48.696;10.066;2023-05-07T11:08:04;4.00;;;1.97;;
5133;SDS011;2585;48.696;10.066;2023-05-07T11:13:18;2.23;;;1.60;;
5133;SDS011;2585;48.696;10.066;2023-05-07T11:16:04;2.77;;;1.93;;
5133;SDS011;2585;48.696;10.066;2023-05-07T11:18:46;3.00;;;2.30;;
5133;SDS011;2585;48.696;10.066;2023-05-07T11:21:39;1.73;;;1.43;;
5133;SDS011;2585;48.696;10.066;2023-05-07T11:24:07;2.30;;;1.40;;
5133;SDS011;2585;48.696;10.066;2023-05-07T11:26:46;2.87;;;1.40;;
5133;SDS011;2585;48.696;10.066;2023-05-07T11:29:18;1.60;;;1.50;;
5133;SDS011;2585;48.696;10.066;2023-05-07T11:31:48;2.80;;;1.77;;
5133;SDS011;2585;48.696;10.066;2023-05-07T11:34:23;2.10;;;1.80;;
5133;SDS011;2585;48.696;10.066;2023-05-07T11:36:51;2.00;;;1.47;;
5133;SDS011;2585;48.696;10.066;2023-05-07T11:39:25;3.00;;;1.67;;
5133;SDS011;2585;48.696;10.066;2023-05-07T11:41:52;1.47;;;1.37;;
5133;SDS011;2585;48.696;10.066;2023-05-07T11:44:19;7.23;;;1.90;;
5133;SDS011;2585;48.696;10.066;2023-05-07T11:46:46;3.37;;;1.60;;
5133;SDS011;2585;48.696;10.066;2023-05-07T11:49:14;2.90;;;1.47;;
5133;SDS011;2585;48.696;10.066;2023-05-07T11:51:41;1.77;;;1.50;;
5133;SDS011;2585;48.696;10.066;2023-05-07T11:54:09;2.50;;;1.67;;
5133;SDS011;2585;48.696;10.066;2023-05-07T11:56:37;1.93;;;1.73;;
5133;SDS011;2585;48.696;10.066;2023-05-07T11:59:05;2.83;;;1.67;;
5133;SDS011;2585;48.696;10.066;2023-05-07T12:01:34;1.80;;;1.70;;
5133;SDS011;2585;48.696;10.066;2023-05-07T12:04:03;2.53;;;1.90;;
5133;SDS011;2585;48.696;10.066;2023-05-07T12:06:35;4.10;;;1.93;;
5133;SDS011;2585;48.696;10.066;2023-05-07T12:09:03;2.17;;;1.90;;
5133;SDS011;2585;48.696;10.066;2023-05-07T12:11:31;2.70;;;1.97;;
5133;SDS011;2585;48.696;10.066;2023-05-07T12:13:57;2.17;;;1.97;;
5133;SDS011;2585;48.696;10.066;2023-05-07T12:16:28;2.93;;;2.10;;
5133;SDS011;2585;48.696;10.066;2023-05-07T12:18:56;3.60;;;2.10;;
5133;SDS011;2585;48.696;10.066;2023-05-07T12:21:25;3.27;;;1.80;;
5133;SDS011;2585;48.696;10.066;2023-05-07T12:23:52;4.13;;;1.97;;
5133;SDS011;2585;48.696;10.066;2023-05-07T12:26:19;1.93;;;1.57;;
5133;SDS011;2585;48.696;10.066;2023-05-07T12:28:47;5.50;;;1.80;;
5133;SDS011;2585;48.696;10.066;2023-05-07T12:31:14;3.13;;;1.83;;
5133;SDS011;2585;48.696;10.066;2023-05-07T12:33:42;1.43;;;1.33;;
5133;SDS011;2585;48.696;10.066;2023-05-07T12:36:11;3.70;;;1.67;;
5133;SDS011;2585;48.696;10.066;2023-05-07T12:38:39;4.20;;;2.17;;
5133;SDS011;2585;48.696;10.066;2023-05-07T12:41:07;2.20;;;1.70;;
5133;SDS011;2585;48.696;10.066;2023-05-07T12:43:36;2.03;;;1.80;;
5133;SDS011;2585;48.696;10.066;2023-05-07T12:46:04;1.97;;;1.60;;
5133;SDS011;2585;48.696;10.066;2023-05-07T12:48:32;1.93;;;1.63;;
5133;SDS011;2585;48.696;10.066;2023-05-07T12:51:00;2.00;;;1.70;;
5133;SDS011;2585;48.696;10.066;2023-05-07T12:53:28;2.70;;;1.90;;
5133;SDS011;2585;48.696;10.066;2023-05-07T12:55:57;2.67;;;1.90;;
5133;SDS011;2585;48.696;10.066;2023-05-07T12:58:26;2.43;;;1.77;;
5133;SDS011;2585;48.696;10.066;2023-05-07T13:00:55;5.70;;;1.83;;
5133;SDS011;2585;48.696;10.066;2023-05-07T13:03:33;4.77;;;1.77;;
5133;SDS011;2585;48.696;10.066;2023-05-07T13:06:03;2.57;;;1.80;;
5133;SDS011;2585;48.696;10.066;2023-05-07T13:08:37;3.50;;;1.80;;
5133;SDS011;2585;48.696;10.066;2023-05-07T13:11:07;2.07;;;1.70;;
5133;SDS011;2585;48.696;10.066;2023-05-07T13:13:35;2.33;;;2.00;;
5133;SDS011;2585;48.696;10.066;2023-05-07T13:16:03;4.17;;;1.80;;
5133;SDS011;2585;48.696;10.066;2023-05-07T13:18:31;2.00;;;1.80;;
5133;SDS011;2585;48.696;10.066;2023-05-07T13:21:00;2.20;;;1.47;;
5133;SDS011;2585;48.696;10.066;2023-05-07T13:23:27;6.97;;;2.20;;
5133;SDS011;2585;48.696;10.066;2023-05-07T13:25:54;9.80;;;1.70;;
5133;SDS011;2585;48.696;10.066;2023-05-07T13:28:22;2.47;;;1.90;;
5133;SDS011;2585;48.696;10.066;2023-05-07T13:30:52;4.30;;;2.60;;
5133;SDS011;2585;48.696;10.066;2023-05-07T13:33:20;2.20;;;2.00;;
5133;SDS011;2585;48.696;10.066;2023-05-07T13:35:47;2.40;;;2.03;;
5133;SDS011;2585;48.696;10.066;2023-05-07T13:38:14;3.20;;;1.93;;
5133;SDS011;2585;48.696;10.066;2023-05-07T13:40:42;2.40;;;1.87;;
5133;SDS011;2585;48.696;10.066;2023-05-07T13:43:09;2.03;;;1.47;;
5133;SDS011;2585;48.696;10.066;2023-05-07T13:45:36;2.70;;;2.23;;
5133;SDS011;2585;48.696;10.066;2023-05-07T13:48:03;1.80;;;1.63;;
5133;SDS011;2585;48.696;10.066;2023-05-07T13:50:30;1.83;;;1.53;;
5133;SDS011;2585;48.696;10.066;2023-05-07T13:52:57;5.93;;;1.53;;
5133;SDS011;2585;48.696;10.066;2023-05-07T13:55:24;1.93;;;1.73;;
5133;SDS011;2585;48.696;10.066;2023-05-07T13:57:55;4.30;;;2.20;;
5133;SDS011;2585;48.696;10.066;2023-05-07T14:00:23;3.40;;;1.93;;
5133;SDS011;2585;48.696;10.066;2023-05-07T14:02:51;3.47;;;1.60;;
5133;SDS011;2585;48.696;10.066;2023-05-07T14:05:18;2.23;;;1.90;;
5133;SDS011;2585;48.696;10.066;2023-05-07T14:07:45;3.77;;;2.20;;
5133;SDS011;2585;48.696;10.066;2023-05-07T14:10:13;2.97;;;1.90;;
5133;SDS011;2585;48.696;10.066;2023-05-07T14:12:40;2.50;;;1.93;;
5133;SDS011;2585;48.696;10.066;2023-05-07T14:15:07;3.83;;;1.80;;
5133;SDS011;2585;48.696;10.066;2023-05-07T14:17:34;3.20;;;1.90;;
5133;SDS011;2585;48.696;10.066;2023-05-07T14:20:01;3.17;;;1.80;;
5133;SDS011;2585;48.696;10.066;2023-05-07T14:22:28;2.13;;;1.90;;
5133;SDS011;2585;48.696;10.066;2023-05-07T14:24:55;1.50;;;1.40;;
5133;SDS011;2585;48.696;10.066;2023-05-07T14:27:38;2.67;;;1.80;;
5133;SDS011;2585;48.696;10.066;2023-05-07T14:30:05;2.40;;;1.70;;
5133;SDS011;2585;48.696;10.066;2023-05-07T14:32:33;2.60;;;1.53;;
5133;SDS011;2585;48.696;10.066;2023-05-07T14:35:00;1.57;;;1.47;;
5133;SDS011;2585;48.696;10.066;2023-05-07T14:37:27;2.33;;;2.13;;
5133;SDS011;2585;48.696;10.066;2023-05-07T14:39:54;5.77;;;2.50;;
5133;SDS011;2585;48.696;10.066;2023-05-07T14:42:21;1.77;;;1.67;;
5133;SDS011;2585;48.696;10.066;2023-05-07T14:44:48;2.07;;;1.83;;
5133;SDS011;2585;48.696;10.066;2023-05-07T14:47:14;2.20;;;1.50;;
5133;SDS011;2585;48.696;10.066;2023-05-07T14:49:44;4.30;;;2.13;;
5133;SDS011;2585;48.696;10.066;2023-05-07T14:52:11;3.83;;;2.20;;
5133;SDS011;2585;48.696;10.066;2023-05-07T14:54:38;3.37;;;1.87;;
5133;SDS011;2585;48.696;10.066;2023-05-07T14:57:06;3.20;;;2.20;;
5133;SDS011;2585;48.696;10.066;2023-05-07T14:59:34;1.90;;;1.50;;
5133;SDS011;2585;48.696;10.066;2023-05-07T15:02:01;2.23;;;1.70;;
5133;SDS011;2585;48.696;10.066;2023-05-07T15:04:32;2.40;;;1.50;;
5133;SDS011;2585;48.696;10.066;2023-05-07T15:06:59;2.30;;;1.93;;
5133;SDS011;2585;48.696;10.066;2023-05-07T15:09:26;2.83;;;2.07;;
5133;SDS011;2585;48.696;10.066;2023-05-07T15:11:53;4.60;;;1.60;;
5133;SDS011;2585;48.696;10.066;2023-05-07T15:14:20;3.20;;;1.50;;
5133;SDS011;2585;48.696;10.066;2023-05-07T15:16:48;2.13;;;1.67;;
5133;SDS011;2585;48.696;10.066;2023-05-07T15:19:16;3.53;;;1.80;;
5133;SDS011;2585;48.696;10.066;2023-05-07T15:21:43;3.00;;;2.00;;